Time;durP1;ratioP1;P1;durP2;ratioP2;P2;SDS_P1;SDS_P2;PMS_P1;PMS_P2;Temp;Humidity;BMP_temperature;BMP_pressure;BME280_temperature;BME280_humidity;BME280_pressure;Samples;Min_cycle;Max_cycle;Signal;HPM_P1;HPM_P2
2023/12/28 00:07:20;;;;;;;;;;;;;;;;;;;;;
2023/12/28 00:10:09;;;;;;;0.13;0.13;;;;;;;;;;5012330;28;20090;-91
2023/12/28 00:13:16;;;;;;;0.10;0.10;;;;;;;;;;4989724;28;20105;-92
2023/12/28 00:16:06;;;;;;;0.40;0.32;;;;;;;;;;4998176;28;20117;-91
2023/12/28 00:24:14;;;;;;;0.60;0.50;;;;;;;;;;5107564;23;20079;-91
2023/12/28 00:27:02;;;;;;;1.02;1.00;;;;;;;;;;4961562;28;20042;-91
2023/12/28 00:29:59;;;;;;;0.08;0.08;;;;;;;;;;4982991;28;20062;-91
2023/12/28 00:43:51;;;;;;;0.60;0.23;;;;;;;;;;5108974;23;20084;-91
2023/12/28 01:29:27;;;;;;;0.10;0.10;;;;;;;;;;5042081;23;20038;-93
2023/12/28 01:32:30;;;;;;;0.00;0.00;;;;;;;;;;5013730;28;20046;-92
2023/12/28 01:35:16;;;;;;;0.15;0.15;;;;;;;;;;5011920;28;20094;-91
2023/12/28 01:48:47;;;;;;;0.13;0.10;;;;;;;;;;5749101;22;12166867;-93
2023/12/28 01:51:46;;;;;;;0.20;0.10;;;;;;;;;;6276589;22;20041;-93
2023/12/28 01:54:33;;;;;;;0.08;0.08;;;;;;;;;;6278800;22;20062;-91
2023/12/28 01:57:17;;;;;;;0.10;0.10;;;;;;;;;;6286609;22;20063;-92
2023/12/28 02:02:35;;;;;;;0.07;0.07;;;;;;;;;;6296556;22;20113;-92
2023/12/28 02:05:23;;;;;;;0.00;0.00;;;;;;;;;;6284509;22;20076;-92
2023/12/28 02:08:13;;;;;;;0.13;0.13;;;;;;;;;;6330243;22;20021;-91
2023/12/28 02:10:56;;;;;;;0.10;0.10;;;;;;;;;;6306409;22;20034;-93
2023/12/28 02:13:28;;;;;;;0.57;0.40;;;;;;;;;;6303997;22;20023;-92
2023/12/28 02:16:13;;;;;;;0.13;0.10;;;;;;;;;;6297253;22;20019;-91
2023/12/28 02:18:59;;;;;;;0.10;0.10;;;;;;;;;;6308329;22;20088;-92
2023/12/28 02:24:38;;;;;;;0.10;0.10;;;;;;;;;;6368063;22;20401;-92
2023/12/28 02:27:24;;;;;;;0.20;0.20;;;;;;;;;;6321182;22;20045;-90
2023/12/28 02:29:59;;;;;;;0.00;0.00;;;;;;;;;;6371415;22;20026;-90
2023/12/28 02:32:40;;;;;;;0.20;0.20;;;;;;;;;;6344352;22;20023;-91
2023/12/28 02:36:08;;;;;;;0.00;0.00;;;;;;;;;;6362712;22;20027;-92
2023/12/28 02:39:02;;;;;;;0.10;0.10;;;;;;;;;;6343528;22;20006;-92
2023/12/28 02:42:02;;;;;;;;;;;;;;;;;;;;;
2023/12/28 02:44:46;;;;;;;0.15;0.15;;;;;;;;;;6367185;22;20015;-91
2023/12/28 02:47:47;;;;;;;;;;;;;;;;;;;;;
2023/12/28 02:50:33;;;;;;;0.10;0.10;;;;;;;;;;6237193;23;20024;-91
2023/12/28 02:53:14;;;;;;;0.10;0.10;;;;;;;;;;6210219;23;20036;-91
2023/12/28 02:55:55;;;;;;;0.17;0.17;;;;;;;;;;6213767;23;20008;-91
2023/12/28 02:59:05;;;;;;;0.10;0.10;;;;;;;;;;6228633;23;20043;-91
2023/12/28 03:02:07;;;;;;;0.00;0.00;;;;;;;;;;6200821;23;20029;-93
2023/12/28 03:04:50;;;;;;;0.08;0.08;;;;;;;;;;6208697;23;20020;-91
2023/12/28 03:07:47;;;;;;;;;;;;;;;;;;;;;
2023/12/28 03:10:36;;;;;;;0.20;0.20;;;;;;;;;;6226089;23;20051;-91
2023/12/28 03:13:16;;;;;;;0.00;0.00;;;;;;;;;;6207408;23;20127;-93
2023/12/28 03:15:58;;;;;;;0.43;0.43;;;;;;;;;;6207509;23;20035;-90
2023/12/28 03:18:40;;;;;;;0.63;0.17;;;;;;;;;;6182311;23;20030;-91
2023/12/28 03:21:35;;;;;;;0.10;0.10;;;;;;;;;;6199831;23;20055;-91
2023/12/28 03:24:28;;;;;;;0.45;0.45;;;;;;;;;;6225718;23;20052;-91
2023/12/28 03:27:12;;;;;;;0.22;0.22;;;;;;;;;;6183321;23;20048;-91
2023/12/28 03:29:59;;;;;;;0.30;0.20;;;;;;;;;;6202964;23;20092;-90
2023/12/28 03:32:38;;;;;;;11.65;2.00;;;;;;;;;;6205931;23;20036;-90
2023/12/28 03:35:25;;;;;;;0.10;0.10;;;;;;;;;;6204656;23;20099;-90
2023/12/28 03:38:03;;;;;;;0.20;0.20;;;;;;;;;;6220977;23;20052;-90
2023/12/28 03:40:56;;;;;;;0.07;0.07;;;;;;;;;;6247390;22;20474;-91
2023/12/28 03:43:32;;;;;;;0.10;0.10;;;;;;;;;;6352921;22;20428;-91
2023/12/28 03:46:14;;;;;;;0.10;0.10;;;;;;;;;;6324270;22;20401;-91
2023/12/28 03:48:43;;;;;;;;;;;;;;;;;;6322992;22;20085;-91
2023/12/28 03:51:50;;;;;;;0.20;0.20;;;;;;;;;;6322767;22;19914;-90
2023/12/28 03:54:32;;;;;;;0.10;0.10;;;;;;;;;;6336896;22;20033;-90
2023/12/28 03:57:06;;;;;;;0.10;0.10;;;;;;;;;;6350271;22;20348;-91
2023/12/28 03:59:39;;;;;;;0.38;0.38;;;;;;;;;;6322126;22;20027;-92
2023/12/28 04:05:18;;;;;;;0.50;0.50;;;;;;;;;;6343831;22;20010;-91
2023/12/28 04:08:00;;;;;;;0.43;0.40;;;;;;;;;;6324454;22;20034;-91
2023/12/28 04:10:42;;;;;;;0.22;0.22;;;;;;;;;;6325758;22;20204;-91
2023/12/28 04:13:31;;;;;;;0.57;0.55;;;;;;;;;;6328756;22;20026;-91
2023/12/28 04:16:12;;;;;;;0.10;0.10;;;;;;;;;;6324464;22;20384;-91
2023/12/28 04:18:53;;;;;;;0.52;0.40;;;;;;;;;;6319663;22;20023;-92
2023/12/28 04:21:41;;;;;;;0.10;0.10;;;;;;;;;;6331255;22;20053;-91
2023/12/28 04:24:28;;;;;;;0.30;0.30;;;;;;;;;;6350591;22;20022;-91
2023/12/28 04:27:12;;;;;;;0.10;0.10;;;;;;;;;;6322655;22;20026;-91
2023/12/28 04:29:48;;;;;;;0.10;0.10;;;;;;;;;;6321599;22;20102;-91
2023/12/28 04:32:20;;;;;;;0.10;0.10;;;;;;;;;;6321278;22;20030;-91
2023/12/28 04:34:52;;;;;;;0.10;0.10;;;;;;;;;;6322587;22;20029;-90
2023/12/28 04:37:34;;;;;;;0.10;0.10;;;;;;;;;;6313573;22;20027;-92
2023/12/28 04:45:35;;;;;;;;;;;;;;;;;;;;;
2023/12/28 04:48:25;;;;;;;0.10;0.10;;;;;;;;;;6318025;22;20027;-91
2023/12/28 04:51:04;;;;;;;0.10;0.10;;;;;;;;;;6295195;22;20092;-91
2023/12/28 04:53:42;;;;;;;0.30;0.30;;;;;;;;;;6298822;22;20077;-93
2023/12/28 04:56:20;;;;;;;1.38;0.40;;;;;;;;;;6302827;22;20023;-91
2023/12/28 04:59:09;;;;;;;0.10;0.10;;;;;;;;;;6304219;22;20011;-90
2023/12/28 05:01:53;;;;;;;0.28;0.22;;;;;;;;;;6305515;22;20019;-91
2023/12/28 05:04:26;;;;;;;0.10;0.10;;;;;;;;;;6304417;22;20027;-91
2023/12/28 05:06:58;;;;;;;0.57;0.50;;;;;;;;;;6300416;22;20019;-91
2023/12/28 05:09:45;;;;;;;0.17;0.10;;;;;;;;;;6301965;22;20034;-91
2023/12/28 05:12:28;;;;;;;0.10;0.10;;;;;;;;;;6302634;22;20011;-91
2023/12/28 05:15:11;;;;;;;0.20;0.20;;;;;;;;;;6304485;22;20029;-91
2023/12/28 05:17:48;;;;;;;0.17;0.17;;;;;;;;;;6303004;22;20032;-91
2023/12/28 05:20:35;;;;;;;0.65;0.45;;;;;;;;;;6302939;22;20019;-90
2023/12/28 05:23:14;;;;;;;0.10;0.10;;;;;;;;;;6304903;22;20023;-91
2023/12/28 05:25:56;;;;;;;0.00;0.00;;;;;;;;;;6301172;22;20037;-91
2023/12/28 05:33:50;;;;;;;0.20;0.20;;;;;;;;;;6304825;22;19999;-92
2023/12/28 05:36:28;;;;;;;0.70;0.65;;;;;;;;;;6304340;22;20024;-90
2023/12/28 05:39:08;;;;;;;0.07;0.07;;;;;;;;;;6283439;22;20011;-91
2023/12/28 05:41:59;;;;;;;0.15;0.15;;;;;;;;;;6315395;22;20023;-92
2023/12/28 05:44:44;;;;;;;0.08;0.08;;;;;;;;;;6323844;22;20045;-92
2023/12/28 05:47:23;;;;;;;0.10;0.10;;;;;;;;;;6297587;22;20075;-91
2023/12/28 05:50:07;;;;;;;0.22;0.22;;;;;;;;;;6301109;22;20019;-91
2023/12/28 05:53:22;;;;;;;0.65;0.65;;;;;;;;;;6299865;22;20027;-90
2023/12/28 05:56:07;;;;;;;0.47;0.30;;;;;;;;;;6293913;22;20300;-92
2023/12/28 05:59:04;;;;;;;0.10;0.10;;;;;;;;;;6316306;22;20076;-92
2023/12/28 06:01:48;;;;;;;0.30;0.30;;;;;;;;;;6294884;22;20038;-91
2023/12/28 06:04:30;;;;;;;0.00;0.00;;;;;;;;;;6296464;22;20332;-90
2023/12/28 06:07:34;;;;;;;0.30;0.30;;;;;;;;;;6281698;22;20084;-91
2023/12/28 06:10:19;;;;;;;0.20;0.20;;;;;;;;;;6180107;22;20039;-91
2023/12/28 06:13:12;;;;;;;;;;;;;;;;;;;;;
2023/12/28 06:15:58;;;;;;;0.28;0.28;;;;;;;;;;6316033;22;20064;-92
2023/12/28 06:18:44;;;;;;;0.10;0.10;;;;;;;;;;6296734;22;20240;-91
2023/12/28 06:21:35;;;;;;;0.40;0.35;;;;;;;;;;6295345;22;20074;-91
2023/12/28 06:24:18;;;;;;;0.10;0.10;;;;;;;;;;6303011;22;20094;-91
2023/12/28 06:26:51;;;;;;;0.10;0.10;;;;;;;;;;6330722;22;20046;-90
2023/12/28 06:29:39;;;;;;;0.10;0.10;;;;;;;;;;6302688;22;20019;-91
2023/12/28 06:32:20;;;;;;;0.40;0.35;;;;;;;;;;6294346;22;20023;-91
2023/12/28 06:34:59;;;;;;;0.13;0.13;;;;;;;;;;6298072;22;20045;-90
2023/12/28 06:37:42;;;;;;;2.60;2.38;;;;;;;;;;6293253;22;20023;-92
2023/12/28 06:40:36;;;;;;;0.75;0.75;;;;;;;;;;6292707;22;20031;-91
2023/12/28 06:43:31;;;;;;;0.10;0.10;;;;;;;;;;6300577;22;20027;-91
2023/12/28 06:46:21;;;;;;;0.10;0.10;;;;;;;;;;6322270;22;20050;-91
2023/12/28 06:49:09;;;;;;;0.13;0.13;;;;;;;;;;6302269;22;20027;-90
2023/12/28 06:51:56;;;;;;;0.00;0.00;;;;;;;;;;6323498;22;20015;-91
2023/12/28 06:54:47;;;;;;;0.20;0.20;;;;;;;;;;6300542;22;20022;-91
2023/12/28 06:57:53;;;;;;;0.20;0.20;;;;;;;;;;6302503;22;20023;-92
2023/12/28 07:00:34;;;;;;;0.10;0.10;;;;;;;;;;6293068;22;20023;-92
2023/12/28 07:03:16;;;;;;;0.15;0.10;;;;;;;;;;6288685;22;20023;-91
2023/12/28 07:05:56;;;;;;;0.35;0.32;;;;;;;;;;6295656;22;20023;-91
2023/12/28 07:08:43;;;;;;;0.35;0.10;;;;;;;;;;6299864;22;20023;-91
2023/12/28 07:11:48;;;;;;;0.10;0.10;;;;;;;;;;6297159;22;20034;-91
2023/12/28 07:14:41;;;;;;;0.10;0.10;;;;;;;;;;6298473;22;20019;-90
2023/12/28 07:17:34;;;;;;;0.25;0.25;;;;;;;;;;6297778;22;20023;-92
2023/12/28 07:20:51;;;;;;;0.52;0.22;;;;;;;;;;6293732;22;20359;-90
2023/12/28 07:23:50;;;;;;;0.08;0.08;;;;;;;;;;6307519;22;20052;-90
2023/12/28 07:26:44;;;;;;;0.00;0.00;;;;;;;;;;6214111;22;20016;-91
2023/12/28 07:29:30;;;;;;;0.15;0.15;;;;;;;;;;6116052;23;20093;-91
2023/12/28 07:32:31;;;;;;;;;;;;;;;;;;;;;
2023/12/28 07:35:29;;;;;;;0.10;0.10;;;;;;;;;;6331639;22;20018;-91
2023/12/28 07:38:44;;;;;;;;;;;;;;;;;;;;;
2023/12/28 07:41:30;;;;;;;0.43;0.43;;;;;;;;;;6325633;22;20024;-90
2023/12/28 07:47:07;;;;;;;0.20;0.20;;;;;;;;;;6297544;22;20032;-91
2023/12/28 07:49:52;;;;;;;2.40;0.50;;;;;;;;;;6306058;22;20019;-91
2023/12/28 07:52:40;;;;;;;0.47;0.30;;;;;;;;;;6305525;22;20034;-92
2023/12/28 08:05:42;;;;;;;0.67;0.63;;;;;;;;;;6322982;22;20069;-91
2023/12/28 08:08:40;;;;;;;0.10;0.10;;;;;;;;;;6332583;22;20071;-91
2023/12/28 08:11:47;;;;;;;0.80;0.10;;;;;;;;;;6308940;22;20039;-90
2023/12/28 08:17:13;;;;;;;0.20;0.20;;;;;;;;;;6300327;22;20004;-92
2023/12/28 08:19:56;;;;;;;1.55;0.68;;;;;;;;;;6274524;22;20075;-91
2023/12/28 08:22:53;;;;;;;;;;;;;;;;;;;;;
2023/12/28 08:25:39;;;;;;;0.20;0.20;;;;;;;;;;6288624;22;20321;-91
2023/12/28 08:32:05;;;;;;;0.17;0.17;;;;;;;;;;6174042;22;20069;-92
2023/12/28 08:34:56;;;;;;;0.10;0.10;;;;;;;;;;6291517;22;20035;-92
2023/12/28 08:37:55;;;;;;;0.80;0.60;;;;;;;;;;6271144;22;20003;-92
2023/12/28 08:45:47;;;;;;;0.13;0.13;;;;;;;;;;6276271;22;20316;-91
2023/12/28 09:01:27;;;;;;;0.30;0.30;;;;;;;;;;6290543;22;20081;-92
2023/12/28 09:04:18;;;;;;;0.10;0.10;;;;;;;;;;6267575;22;20024;-92
2023/12/28 09:07:04;;;;;;;0.13;0.13;;;;;;;;;;6267751;22;20026;-92
2023/12/28 09:09:53;;;;;;;2.88;0.25;;;;;;;;;;6296010;22;20024;-93
2023/12/28 09:13:14;;;;;;;0.00;0.00;;;;;;;;;;6239671;22;20028;-91
2023/12/28 09:50:07;;;;;;;0.45;0.43;;;;;;;;;;6281152;22;20019;-91
2023/12/28 09:52:54;;;;;;;0.17;0.17;;;;;;;;;;6251291;22;20122;-92
2023/12/28 09:55:29;;;;;;;0.50;0.47;;;;;;;;;;6273064;22;20027;-91
2023/12/28 10:01:26;;;;;;;0.10;0.10;;;;;;;;;;6289048;22;20019;-92
2023/12/28 10:04:03;;;;;;;2.17;0.40;;;;;;;;;;6272763;22;20024;-90
2023/12/28 10:10:30;;;;;;;0.68;0.52;;;;;;;;;;6247178;22;20393;-91
2023/12/28 10:13:15;;;;;;;0.10;0.10;;;;;;;;;;6263889;22;20023;-91
2023/12/28 10:16:00;;;;;;;1.40;0.32;;;;;;;;;;6277090;22;20027;-91
2023/12/28 10:24:00;;;;;;;0.00;0.00;;;;;;;;;;6272839;22;20030;-93
2023/12/28 10:26:49;;;;;;;0.15;0.13;;;;;;;;;;6297894;22;20023;-91
2023/12/28 10:29:38;;;;;;;0.00;0.00;;;;;;;;;;6272202;22;20028;-91
2023/12/28 10:32:58;;;;;;;0.40;0.40;;;;;;;;;;6293949;22;20028;-91
2023/12/28 10:35:41;;;;;;;7.72;1.67;;;;;;;;;;6296716;22;20034;-92
2023/12/28 10:38:23;;;;;;;1.05;0.73;;;;;;;;;;6272877;22;20071;-92
2023/12/28 10:41:22;;;;;;;0.15;0.15;;;;;;;;;;6296130;22;20024;-91
2023/12/28 10:44:08;;;;;;;0.30;0.22;;;;;;;;;;6307610;22;20021;-92
2023/12/28 10:46:56;;;;;;;2.90;1.03;;;;;;;;;;6297748;22;20034;-92
2023/12/28 10:49:53;;;;;;;;;;;;;;;;;;;;;
2023/12/28 10:52:47;;;;;;;;;;;;;;;;;;;;;
2023/12/28 10:55:49;;;;;;;0.30;0.30;;;;;;;;;;6321007;22;20038;-91
2023/12/28 11:04:16;;;;;;;2.75;0.63;;;;;;;;;;6269455;22;20011;-91
2023/12/28 11:09:54;;;;;;;0.10;0.10;;;;;;;;;;6282116;22;20019;-91
2023/12/28 11:12:44;;;;;;;0.00;0.00;;;;;;;;;;6270259;22;20161;-92
2023/12/28 11:15:55;;;;;;;;;;;;;;;;;;;;;
2023/12/28 11:42:57;;;;;;;1.98;0.43;;;;;;;;;;6324064;22;20296;-91
2023/12/28 11:45:52;;;;;;;3.92;2.75;;;;;;;;;;6323777;22;20462;-92
2023/12/28 12:04:38;;;;;;;8.77;3.40;;;;;;;;;;6313243;22;20066;-90
2023/12/28 12:07:34;;;;;;;0.03;0.03;;;;;;;;;;6327139;22;20019;-94
2023/12/28 12:10:27;;;;;;;0.25;0.25;;;;;;;;;;6274211;22;20027;-92
2023/12/28 12:16:17;;;;;;;0.28;0.28;;;;;;;;;;6305382;22;20007;-92
2023/12/28 12:18:58;;;;;;;0.08;0.08;;;;;;;;;;6306693;22;20011;-92
2023/12/28 12:22:09;;;;;;;0.40;0.40;;;;;;;;;;6279054;22;20003;-92
2023/12/28 12:25:05;;;;;;;2.75;1.60;;;;;;;;;;6276273;22;20023;-92
2023/12/28 13:17:56;;;;;;;0.10;0.10;;;;;;;;;;6308746;22;20026;-90
2023/12/28 13:20:56;;;;;;;0.10;0.10;;;;;;;;;;6333882;22;20011;-90
2023/12/28 13:23:41;;;;;;;0.10;0.10;;;;;;;;;;6333996;22;20076;-92
2023/12/28 13:26:41;;;;;;;12.80;2.10;;;;;;;;;;6336503;22;20021;-91
2023/12/28 13:29:28;;;;;;;0.10;0.10;;;;;;;;;;6332045;22;20033;-92
2023/12/28 13:32:15;;;;;;;4.53;1.33;;;;;;;;;;6331519;22;20084;-92
2023/12/28 13:34:58;;;;;;;0.10;0.10;;;;;;;;;;6330466;22;20031;-92
2023/12/28 13:37:48;;;;;;;0.30;0.08;;;;;;;;;;6352535;22;20051;-92
2023/12/28 13:40:55;;;;;;;12.60;0.50;;;;;;;;;;6312911;22;20010;-92
2023/12/28 13:43:48;;;;;;;2.50;0.52;;;;;;;;;;6352675;22;20085;-92
2023/12/28 13:46:24;;;;;;;0.10;0.10;;;;;;;;;;6326379;22;20019;-92
2023/12/28 13:59:32;;;;;;;0.10;0.10;;;;;;;;;;6296545;22;20517;-91
2023/12/28 14:02:21;;;;;;;0.10;0.10;;;;;;;;;;6270062;22;20027;-92
2023/12/28 14:05:13;;;;;;;0.10;0.10;;;;;;;;;;6275453;22;20003;-92
2023/12/28 14:08:13;;;;;;;0.00;0.00;;;;;;;;;;6291224;22;20029;-93
2023/12/28 14:11:14;;;;;;;0.13;0.13;;;;;;;;;;6311297;22;20022;-92
2023/12/28 14:14:08;;;;;;;0.10;0.10;;;;;;;;;;6269629;22;20027;-91
2023/12/28 14:16:57;;;;;;;0.10;0.10;;;;;;;;;;6269754;22;20070;-92
2023/12/28 14:19:39;;;;;;;0.10;0.10;;;;;;;;;;6265222;22;20020;-92
2023/12/28 14:25:44;;;;;;;0.55;0.20;;;;;;;;;;6285677;22;20015;-92
2023/12/28 14:32:15;;;;;;;3.25;0.90;;;;;;;;;;6312452;22;20010;-92
2023/12/28 14:35:05;;;;;;;0.38;0.38;;;;;;;;;;6283073;22;20041;-91
2023/12/28 14:38:08;;;;;;;0.10;0.10;;;;;;;;;;6330703;22;20439;-92
2023/12/28 14:43:24;;;;;;;0.20;0.20;;;;;;;;;;6304450;22;20051;-96
2023/12/28 14:46:09;;;;;;;0.10;0.10;;;;;;;;;;6279863;22;20008;-95
2023/12/28 14:48:51;;;;;;;0.10;0.10;;;;;;;;;;6282595;22;20008;-94
2023/12/28 14:51:33;;;;;;;4.85;0.30;;;;;;;;;;6304021;22;20028;-95
2023/12/28 14:54:13;;;;;;;2.60;2.35;;;;;;;;;;6282358;22;20013;-94
2023/12/28 14:56:43;;;;;;;1.08;1.08;;;;;;;;;;6280073;22;20022;-95
2023/12/28 14:59:27;;;;;;;2.05;0.47;;;;;;;;;;6282834;22;20054;-95
2023/12/28 15:02:04;;;;;;;0.08;0.08;;;;;;;;;;6282380;22;20012;-94
2023/12/28 15:04:38;;;;;;;0.40;0.30;;;;;;;;;;6280971;22;20028;-94
2023/12/28 15:07:19;;;;;;;1.67;0.30;;;;;;;;;;6280979;22;20249;-95
2023/12/28 15:10:08;;;;;;;5.82;0.73;;;;;;;;;;6281890;22;20007;-94
2023/12/28 15:12:55;;;;;;;0.28;0.22;;;;;;;;;;6276090;22;20042;-96
2023/12/28 15:15:35;;;;;;;0.00;0.00;;;;;;;;;;6280575;22;20052;-96
2023/12/28 15:18:13;;;;;;;0.00;0.00;;;;;;;;;;6281668;22;20566;-94
2023/12/28 15:20:57;;;;;;;1.08;0.45;;;;;;;;;;6281407;22;20004;-96
2023/12/28 15:23:44;;;;;;;0.10;0.10;;;;;;;;;;6304290;22;20027;-95
2023/12/28 15:26:24;;;;;;;0.10;0.10;;;;;;;;;;6280961;22;20075;-95
2023/12/28 15:28:55;;;;;;;0.00;0.00;;;;;;;;;;6279207;22;20012;-95
2023/12/28 15:31:39;;;;;;;0.05;0.05;;;;;;;;;;6280834;22;20079;-96
2023/12/28 15:34:24;;;;;;;0.28;0.28;;;;;;;;;;6280258;22;20017;-95
2023/12/28 15:36:56;;;;;;;0.20;0.20;;;;;;;;;;6280227;22;20022;-95
2023/12/28 15:39:59;;;;;;;0.10;0.10;;;;;;;;;;6280787;22;20080;-96
2023/12/28 15:42:43;;;;;;;0.10;0.10;;;;;;;;;;6315954;22;20011;-95
2023/12/28 15:45:24;;;;;;;0.10;0.10;;;;;;;;;;6334869;22;19999;-95
2023/12/28 15:47:57;;;;;;;1.00;0.30;;;;;;;;;;6335343;22;20007;-94
2023/12/28 15:50:33;;;;;;;0.13;0.13;;;;;;;;;;6335723;22;20058;-94
2023/12/28 15:53:16;;;;;;;0.10;0.10;;;;;;;;;;6336318;22;20011;-95
2023/12/28 15:55:58;;;;;;;0.10;0.10;;;;;;;;;;6331924;22;20007;-95
2023/12/28 15:58:40;;;;;;;0.88;0.30;;;;;;;;;;6336135;22;20041;-95
2023/12/28 16:01:13;;;;;;;2.92;0.28;;;;;;;;;;6334569;22;20029;-94
2023/12/28 16:03:53;;;;;;;0.00;0.00;;;;;;;;;;6333917;22;20023;-94
2023/12/28 16:06:30;;;;;;;0.28;0.28;;;;;;;;;;6335407;22;20090;-95
2023/12/28 16:09:11;;;;;;;0.10;0.10;;;;;;;;;;6332720;22;20027;-94
2023/12/28 16:11:56;;;;;;;0.10;0.10;;;;;;;;;;6335552;22;20019;-94
2023/12/28 16:14:28;;;;;;;0.20;0.20;;;;;;;;;;6335371;22;20015;-95
2023/12/28 16:16:56;;;;;;;3.90;3.58;;;;;;;;;;6335477;22;20008;-94
2023/12/28 16:19:40;;;;;;;3.58;3.28;;;;;;;;;;6334488;22;20004;-94
2023/12/28 16:22:08;;;;;;;14.90;5.28;;;;;;;;;;6335965;22;20011;-95
2023/12/28 16:24:49;;;;;;;0.45;0.45;;;;;;;;;;6333889;22;20026;-94
2023/12/28 16:27:20;;;;;;;0.20;0.20;;;;;;;;;;6336160;22;20011;-95
2023/12/28 16:30:07;;;;;;;1.65;0.43;;;;;;;;;;6336577;22;20007;-96
2023/12/28 16:32:48;;;;;;;1.30;0.82;;;;;;;;;;6333098;22;20007;-95
2023/12/28 16:35:28;;;;;;;0.57;0.47;;;;;;;;;;6333538;22;20023;-94
2023/12/28 16:38:14;;;;;;;0.77;0.70;;;;;;;;;;6332741;22;20019;-95
2023/12/28 16:40:54;;;;;;;0.20;0.20;;;;;;;;;;6333577;22;20009;-95
2023/12/28 16:43:41;;;;;;;0.28;0.25;;;;;;;;;;6279403;22;20022;-96
2023/12/28 16:46:21;;;;;;;0.55;0.47;;;;;;;;;;6280270;22;20012;-95
2023/12/28 16:48:51;;;;;;;0.22;0.22;;;;;;;;;;6279624;22;20011;-95
2023/12/28 16:51:21;;;;;;;0.10;0.10;;;;;;;;;;6279692;22;20075;-93
2023/12/28 16:54:08;;;;;;;0.55;0.40;;;;;;;;;;6278772;22;20190;-90
2023/12/28 16:56:52;;;;;;;0.20;0.20;;;;;;;;;;6334455;22;20027;-94
2023/12/28 16:59:20;;;;;;;0.77;0.75;;;;;;;;;;6340789;22;20019;-95
2023/12/28 17:01:52;;;;;;;1.95;0.70;;;;;;;;;;6341209;22;20003;-96
2023/12/28 17:04:34;;;;;;;4.65;0.93;;;;;;;;;;6366545;22;20011;-95
2023/12/28 17:07:04;;;;;;;0.50;0.50;;;;;;;;;;6341355;22;20063;-96
2023/12/28 17:09:48;;;;;;;0.10;0.10;;;;;;;;;;6340988;22;20026;-94
2023/12/28 17:12:41;;;;;;;1.33;0.63;;;;;;;;;;6320953;22;20026;-95
2023/12/28 17:15:20;;;;;;;3.55;0.85;;;;;;;;;;6336223;22;20011;-95
2023/12/28 17:18:14;;;;;;;0.63;0.63;;;;;;;;;;6298471;22;20123;-90
2023/12/28 17:26:32;;;;;;;1.30;0.35;;;;;;;;;;6293262;22;20023;-89
2023/12/28 17:29:32;;;;;;;1.98;0.57;;;;;;;;;;6275841;22;20389;-91
2023/12/28 17:32:22;;;;;;;0.15;0.15;;;;;;;;;;6269879;22;20039;-89
2023/12/28 17:35:21;;;;;;;0.00;0.00;;;;;;;;;;6270370;22;20094;-91
2023/12/28 17:38:15;;;;;;;3.42;2.30;;;;;;;;;;6270504;22;20020;-90
2023/12/28 17:41:10;;;;;;;10.15;0.52;;;;;;;;;;6284600;22;20020;-90
2023/12/28 17:44:00;;;;;;;4.90;0.57;;;;;;;;;;6286077;22;20057;-89
2023/12/28 17:46:49;;;;;;;0.10;0.10;;;;;;;;;;6284535;22;20350;-90
2023/12/28 17:49:31;;;;;;;2.08;0.75;;;;;;;;;;6261760;22;20027;-89
2023/12/28 17:52:16;;;;;;;0.20;0.20;;;;;;;;;;6263166;22;20090;-90
2023/12/28 17:55:02;;;;;;;0.80;0.10;;;;;;;;;;6258286;22;20242;-90
2023/12/28 17:58:10;;;;;;;0.10;0.10;;;;;;;;;;6257474;22;20066;-89
2023/12/28 18:01:06;;;;;;;0.38;0.35;;;;;;;;;;6280493;22;20019;-89
2023/12/28 18:03:57;;;;;;;0.17;0.10;;;;;;;;;;6289645;22;20071;-90
2023/12/28 18:06:52;;;;;;;0.25;0.13;;;;;;;;;;6244896;22;20011;-89
2023/12/28 18:09:43;;;;;;;;;;;;;;;;;;;;;
2023/12/28 18:12:53;;;;;;;0.30;0.30;;;;;;;;;;6298354;22;20027;-89
2023/12/28 18:18:55;;;;;;;1.08;1.05;;;;;;;;;;6278452;22;20023;-90
2023/12/28 18:21:40;;;;;;;2.95;1.92;;;;;;;;;;6260292;22;20020;-90
2023/12/28 18:24:27;;;;;;;1.02;1.02;;;;;;;;;;6260724;22;20086;-90
2023/12/28 18:30:12;;;;;;;0.30;0.30;;;;;;;;;;6227155;22;20024;-90
2023/12/28 18:32:59;;;;;;;0.32;0.13;;;;;;;;;;6262910;22;20058;-90
2023/12/28 18:38:13;;;;;;;1.25;0.63;;;;;;;;;;6315981;22;20445;-90
2023/12/28 18:40:56;;;;;;;0.13;0.13;;;;;;;;;;6317266;22;20019;-90
2023/12/28 18:43:46;;;;;;;0.10;0.10;;;;;;;;;;6312127;22;20034;-89
2023/12/28 18:46:21;;;;;;;0.82;0.40;;;;;;;;;;6317244;22;20030;-89
2023/12/28 18:49:15;;;;;;;0.17;0.17;;;;;;;;;;6318144;22;20011;-90
2023/12/28 18:52:04;;;;;;;0.55;0.30;;;;;;;;;;6314753;22;20011;-90
2023/12/28 18:55:07;;;;;;;0.20;0.20;;;;;;;;;;6313951;22;20019;-91
2023/12/28 18:58:06;;;;;;;0.30;0.30;;;;;;;;;;6317381;22;20053;-89
2023/12/28 19:00:56;;;;;;;0.10;0.10;;;;;;;;;;6321482;22;20064;-90
2023/12/28 19:03:33;;;;;;;0.00;0.00;;;;;;;;;;6323416;22;20019;-95
2023/12/28 19:17:52;;;;;;;0.28;0.28;;;;;;;;;;6320822;22;20018;-90
2023/12/28 19:25:49;;;;;;;0.10;0.10;;;;;;;;;;6311478;22;20454;-90
2023/12/28 19:29:08;;;;;;;0.10;0.10;;;;;;;;;;6298922;22;20040;-95
2023/12/28 19:46:47;;;;;;;0.03;0.03;;;;;;;;;;6236399;22;20088;-94
2023/12/28 19:49:28;;;;;;;0.20;0.20;;;;;;;;;;6305666;22;20036;-96
2023/12/28 19:52:06;;;;;;;0.38;0.38;;;;;;;;;;6305788;22;20031;-96
2023/12/28 21:20:25;;;;;;;0.40;0.40;;;;;;;;;;6166082;23;20024;-89
2023/12/28 21:23:16;;;;;;;0.20;0.20;;;;;;;;;;6147494;23;20057;-91
2023/12/28 21:26:02;;;;;;;1.35;0.28;;;;;;;;;;6352066;22;20389;-90
2023/12/28 21:28:51;;;;;;;1.23;0.55;;;;;;;;;;6320723;22;20050;-89
2023/12/28 21:31:38;;;;;;;3.28;0.65;;;;;;;;;;6351272;22;20010;-90
2023/12/28 21:34:32;;;;;;;;;;;;;;;;;;;;;
2023/12/28 21:37:26;;;;;;;0.20;0.20;;;;;;;;;;6354672;22;20046;-88
2023/12/28 21:40:07;;;;;;;;;;;;;;;;;;;;;
2023/12/28 21:42:55;;;;;;;0.52;0.52;;;;;;;;;;6355648;22;20019;-92
2023/12/28 21:50:58;;;;;;;0.10;0.10;;;;;;;;;;6302063;22;20023;-92
2023/12/28 21:59:22;;;;;;;;;;;;;;;;;;;;;
2023/12/28 22:04:54;;;;;;;0.32;0.32;;;;;;;;;;6324665;22;20019;-92
2023/12/28 22:07:40;;;;;;;0.38;0.25;;;;;;;;;;6301438;22;20023;-91
2023/12/28 22:10:25;;;;;;;4.78;1.33;;;;;;;;;;6320189;22;20432;-91
2023/12/28 22:13:10;;;;;;;1.77;0.63;;;;;;;;;;6308499;22;20041;-91
2023/12/28 22:16:09;;;;;;;;;;;;;;;;;;;;;
2023/12/28 22:19:21;;;;;;;0.10;0.10;;;;;;;;;;6327390;22;20037;-90
2023/12/28 22:25:43;;;;;;;;;;;;;;;;;;;;;
2023/12/28 22:40:21;;;;;;;2.75;1.75;;;;;;;;;;6291538;22;20023;-91
2023/12/28 22:48:42;;;;;;;0.10;0.10;;;;;;;;;;6302638;22;20412;-90
2023/12/28 23:23:20;;;;;;;0.00;0.00;;;;;;;;;;6265487;22;20027;-91
2023/12/28 23:40:07;;;;;;;0.25;0.25;;;;;;;;;;6314993;22;20011;-91
